Time;durP1;ratioP1;P1;durP2;ratioP2;P2;SDS_P1;SDS_P2;PMS_P1;PMS_P2;Temp;Humidity;BMP_temperature;BMP_pressure;BME280_temperature;BME280_humidity;BME280_pressure;Samples;Min_cycle;Max_cycle;Signal;HPM_P1;HPM_P2
2024/04/16 00:00:40;;;;;;;0.30;0.10;;;6.70;1.00;;;;;;5491824;26;20465;-57
2024/04/16 00:03:09;;;;;;;3.83;0.10;;;6.90;1.00;;;;;;5491406;26;20465;-57
2024/04/16 00:05:35;;;;;;;0.30;0.10;;;6.60;1.00;;;;;;5491335;26;20457;-57
2024/04/16 00:08:04;;;;;;;0.20;0.10;;;6.60;1.00;;;;;;5491499;26;20477;-57
2024/04/16 00:10:30;;;;;;;0.20;0.10;;;6.60;1.00;;;;;;5491331;26;20445;-55
2024/04/16 00:12:59;;;;;;;0.20;0.10;;;7.00;1.00;;;;;;5514827;26;20461;-58
2024/04/16 00:15:25;;;;;;;0.30;0.10;;;6.90;1.00;;;;;;5491168;26;20537;-55
2024/04/16 00:17:56;;;;;;;0.30;0.10;;;6.80;1.00;;;;;;5491941;26;20571;-58
2024/04/16 00:20:22;;;;;;;0.20;0.10;;;6.70;1.00;;;;;;5491402;26;20474;-59
2024/04/16 00:22:51;;;;;;;0.30;0.10;;;6.80;1.00;;;;;;5491559;26;20457;-58
2024/04/16 00:25:17;;;;;;;0.30;0.10;;;6.80;1.00;;;;;;5495147;26;20494;-58
2024/04/16 00:27:46;;;;;;;0.30;0.10;;;6.90;1.00;;;;;;5495267;26;20446;-56
2024/04/16 00:30:12;;;;;;;0.40;0.10;;;6.80;1.00;;;;;;5512583;25;20721;-55
2024/04/16 00:32:41;;;;;;;0.50;0.10;;;7.10;1.00;;;;;;5505927;26;20481;-56
2024/04/16 00:35:09;;;;;;;5.13;0.10;;;7.10;1.00;;;;;;5521273;25;20511;-55
2024/04/16 00:37:38;;;;;;;0.40;0.20;;;7.00;1.00;;;;;;5519240;25;20510;-55
2024/04/16 00:40:05;;;;;;;0.30;0.10;;;6.90;1.00;;;;;;5510467;25;20458;-57
2024/04/16 00:42:33;;;;;;;0.30;0.10;;;6.80;1.00;;;;;;5502871;25;20532;-52
2024/04/16 00:44:59;;;;;;;0.30;0.10;;;6.60;1.00;;;;;;5507391;26;20900;-55
2024/04/16 00:47:28;;;;;;;0.50;0.10;;;6.60;1.00;;;;;;5503316;26;20554;-57
2024/04/16 00:49:54;;;;;;;0.20;0.10;;;6.50;1.00;;;;;;5522300;25;20516;-57
2024/04/16 00:52:26;;;;;;;0.20;0.10;;;6.60;1.00;;;;;;5513280;26;20899;-56
2024/04/16 00:54:52;;;;;;;0.20;0.10;;;6.70;1.00;;;;;;5496073;26;20776;-56
2024/04/16 00:57:21;;;;;;;0.30;0.10;;;6.60;1.00;;;;;;5494907;26;20465;-58
2024/04/16 00:59:50;;;;;;;1.20;0.10;;;6.60;1.00;;;;;;5494851;26;20891;-58
2024/04/16 01:02:19;;;;;;;0.30;0.10;;;6.60;1.00;;;;;;5493136;26;20599;-58
2024/04/16 01:04:46;;;;;;;0.30;0.10;;;6.60;1.00;;;;;;5492843;26;20731;-59
2024/04/16 01:07:15;;;;;;;0.20;0.10;;;6.70;1.00;;;;;;5458020;26;20499;-57
2024/04/16 01:09:44;;;;;;;0.20;0.10;;;6.80;1.00;;;;;;5520064;25;20965;-58
2024/04/16 01:12:12;;;;;;;0.57;0.10;;;6.80;1.00;;;;;;5495420;26;20576;-58
2024/04/16 01:14:39;;;;;;;0.30;0.10;;;6.70;1.00;;;;;;5515705;26;20621;-58
2024/04/16 01:17:09;;;;;;;0.30;0.10;;;6.60;1.00;;;;;;5501084;26;20526;-57
2024/04/16 01:19:35;;;;;;;4.10;0.10;;;6.90;1.00;;;;;;5512479;26;20808;-59
2024/04/16 01:22:04;;;;;;;1.20;0.13;;;7.10;1.00;;;;;;5492792;26;20454;-58
2024/04/16 01:24:32;;;;;;;0.50;0.10;;;7.10;1.00;;;;;;5493756;26;20599;-59
2024/04/16 01:27:02;;;;;;;1.63;0.20;;;7.00;1.00;;;;;;5494216;26;20516;-59
2024/04/16 01:29:28;;;;;;;0.30;0.10;;;7.10;1.00;;;;;;5494174;26;20592;-58
2024/04/16 01:31:57;;;;;;;0.30;0.10;;;7.30;1.00;;;;;;5501357;26;20461;-58
2024/04/16 01:34:23;;;;;;;0.40;0.10;;;7.00;1.00;;;;;;5494112;26;20506;-57
2024/04/16 01:36:52;;;;;;;0.30;0.10;;;6.70;1.00;;;;;;5494059;26;20500;-58
2024/04/16 01:39:18;;;;;;;0.30;0.10;;;6.70;1.00;;;;;;5501831;26;20567;-58
2024/04/16 01:41:49;;;;;;;2.40;0.13;;;6.60;1.00;;;;;;5510758;26;20487;-55
2024/04/16 01:44:15;;;;;;;0.60;0.10;;;6.60;1.00;;;;;;5518946;26;20782;-58
2024/04/16 01:46:44;;;;;;;0.30;0.10;;;6.70;1.00;;;;;;5484364;26;20514;-58
2024/04/16 01:49:11;;;;;;;0.30;0.10;;;6.80;1.00;;;;;;5529992;26;20570;-59
2024/04/16 01:51:39;;;;;;;0.40;0.10;;;6.70;1.00;;;;;;5530675;26;20506;-59
2024/04/16 01:54:06;;;;;;;3.53;0.20;;;6.70;1.00;;;;;;5530520;26;20524;-58
2024/04/16 01:56:34;;;;;;;0.30;0.13;;;6.70;1.00;;;;;;5529186;26;20491;-59
2024/04/16 01:59:03;;;;;;;0.30;0.10;;;6.60;1.00;;;;;;5530436;26;20567;-58
2024/04/16 02:01:32;;;;;;;0.40;0.10;;;6.90;1.00;;;;;;5522566;26;20466;-58
2024/04/16 02:03:58;;;;;;;0.20;0.10;;;6.80;1.00;;;;;;5516448;26;20568;-59
2024/04/16 02:06:26;;;;;;;2.73;0.20;;;6.70;1.00;;;;;;5493293;26;20779;-59
2024/04/16 02:08:52;;;;;;;0.20;0.10;;;6.80;1.00;;;;;;5493850;26;20510;-56
2024/04/16 02:11:21;;;;;;;0.30;0.10;;;6.70;1.00;;;;;;5497041;26;20471;-59
2024/04/16 02:13:47;;;;;;;1.13;0.10;;;6.70;1.00;;;;;;5528112;26;20532;-58
2024/04/16 02:16:18;;;;;;;0.27;0.10;;;6.90;4.80;;;;;;5529620;26;20515;-58
2024/04/16 02:18:44;;;;;;;2.63;0.10;;;6.80;1.00;;;;;;5530148;26;20495;-58
2024/04/16 02:21:13;;;;;;;0.30;0.10;;;6.50;1.00;;;;;;5529528;26;20799;-55
2024/04/16 02:23:42;;;;;;;0.30;0.10;;;6.50;1.00;;;;;;5529145;26;20468;-60
2024/04/16 02:26:11;;;;;;;1.07;0.20;;;6.30;1.00;;;;;;5530689;26;20700;-57
2024/04/16 02:28:37;;;;;;;0.30;0.10;;;6.20;1.70;;;;;;5529634;25;20642;-58
2024/04/16 02:31:05;;;;;;;0.50;0.10;;;6.30;14.70;;;;;;5528980;26;20484;-58
2024/04/16 02:33:35;;;;;;;0.37;0.10;;;6.30;5.30;;;;;;5492095;26;20509;-58
2024/04/16 02:36:04;;;;;;;0.30;0.10;;;6.40;10.80;;;;;;5525566;26;20472;-58
2024/04/16 02:38:30;;;;;;;2.53;0.20;;;6.40;3.40;;;;;;5529793;26;20511;-58
2024/04/16 02:40:59;;;;;;;0.60;0.20;;;6.40;1.00;;;;;;5529684;26;20456;-58
2024/04/16 02:43:25;;;;;;;0.87;0.20;;;6.50;1.00;;;;;;5528568;26;20781;-58
2024/04/16 02:45:54;;;;;;;0.30;0.10;;;6.60;1.00;;;;;;5528187;26;20509;-58
2024/04/16 02:48:20;;;;;;;0.40;0.20;;;6.70;1.00;;;;;;5528235;26;20464;-58
2024/04/16 02:50:54;;;;;;;0.20;0.10;;;6.80;1.00;;;;;;5529073;26;20484;-58
2024/04/16 02:53:20;;;;;;;0.30;0.10;;;6.70;1.00;;;;;;5529282;26;20510;-55
2024/04/16 02:55:49;;;;;;;0.40;0.27;;;6.50;1.00;;;;;;5529286;26;20527;-52
2024/04/16 02:58:15;;;;;;;0.20;0.10;;;6.40;1.00;;;;;;5529389;26;20445;-50
2024/04/16 03:00:43;;;;;;;2.63;0.10;;;6.40;15.90;;;;;;5527840;26;20522;-50
2024/04/16 03:03:11;;;;;;;0.30;0.10;;;6.50;57.00;;;;;;5517319;26;20601;-54
2024/04/16 03:05:39;;;;;;;0.47;0.20;;;6.30;39.90;;;;;;5520619;26;20573;-51
2024/04/16 03:08:08;;;;;;;0.60;0.23;;;6.20;68.80;;;;;;5528862;26;20468;-54
2024/04/16 03:10:40;;;;;;;0.93;0.20;;;6.10;99.90;;;;;;5528270;26;20453;-52
2024/04/16 03:13:06;;;;;;;0.30;0.10;;;6.30;82.20;;;;;;5527196;26;20456;-48
2024/04/16 03:15:35;;;;;;;0.30;0.17;;;6.40;80.10;;;;;;5528148;26;20472;-52
2024/04/16 03:18:01;;;;;;;0.30;0.10;;;6.40;67.60;;;;;;5527105;26;20464;-54
2024/04/16 03:20:29;;;;;;;0.20;0.10;;;6.10;22.30;;;;;;5528842;26;20476;-51
2024/04/16 03:22:56;;;;;;;0.30;0.10;;;5.90;41.50;;;;;;5528819;26;20512;-51
2024/04/16 03:25:27;;;;;;;0.30;0.10;;;5.80;63.60;;;;;;5528825;26;20437;-53
2024/04/16 03:27:53;;;;;;;0.30;0.10;;;5.70;64.60;;;;;;5527352;26;20453;-50
2024/04/16 03:30:22;;;;;;;0.57;0.20;;;5.70;90.30;;;;;;5523715;26;20484;-51
2024/04/16 03:32:48;;;;;;;0.40;0.10;;;5.60;88.70;;;;;;5522127;26;20517;-54
2024/04/16 03:35:17;;;;;;;0.20;0.10;;;5.80;99.90;;;;;;5522877;26;20444;-56
2024/04/16 03:37:48;;;;;;;0.30;0.10;;;5.80;81.50;;;;;;5520334;26;20460;-56
2024/04/16 03:40:17;;;;;;;0.50;0.20;;;5.90;94.10;;;;;;5522502;26;20479;-55
2024/04/16 03:42:49;;;;;;;0.30;0.10;;;6.00;66.10;;;;;;5523896;26;20448;-53
2024/04/16 03:45:15;;;;;;;0.40;0.20;;;5.90;57.20;;;;;;5522951;26;20471;-56
2024/04/16 03:47:43;;;;;;;0.20;0.10;;;5.90;77.20;;;;;;5521809;26;20525;-55
2024/04/16 03:50:09;;;;;;;0.37;0.10;;;5.80;69.70;;;;;;5522066;26;21147;-54
2024/04/16 03:52:38;;;;;;;0.30;0.10;;;5.80;93.20;;;;;;5523306;26;20557;-53
2024/04/16 03:55:05;;;;;;;0.27;0.10;;;5.80;97.60;;;;;;5525707;26;20882;-54
2024/04/16 03:57:34;;;;;;;0.30;0.20;;;6.00;99.90;;;;;;5529086;26;20452;-56
2024/04/16 04:02:53;;;;;;;0.40;0.10;;;5.90;95.00;;;;;;5507783;26;20510;-54
2024/04/16 04:05:19;;;;;;;0.90;0.27;;;5.90;91.00;;;;;;5494963;26;20470;-51
2024/04/16 04:07:48;;;;;;;1.63;0.20;;;5.80;96.70;;;;;;5495453;26;20543;-51
2024/04/16 04:10:16;;;;;;;0.30;0.10;;;5.70;93.10;;;;;;5495016;26;20450;-54
2024/04/16 04:12:45;;;;;;;0.30;0.10;;;5.60;99.30;;;;;;5495326;26;20518;-53
2024/04/16 04:15:14;;;;;;;1.43;0.20;;;5.60;99.90;;;;;;5493388;26;20454;-53
2024/04/16 04:17:42;;;;;;;0.40;0.10;;;5.60;99.90;;;;;;5492860;26;20815;-52
2024/04/16 04:20:09;;;;;;;0.40;0.10;;;5.60;99.90;;;;;;5494520;26;20465;-53
2024/04/16 04:22:37;;;;;;;4.73;0.10;;;5.70;96.40;;;;;;5495018;26;20453;-52
2024/04/16 04:25:04;;;;;;;0.37;0.10;;;5.70;97.50;;;;;;5492515;26;20438;-52
2024/04/16 04:27:32;;;;;;;0.40;0.10;;;5.80;95.80;;;;;;5491649;26;20465;-57
2024/04/16 04:29:59;;;;;;;0.93;0.20;;;5.70;95.30;;;;;;5491336;26;20548;-56
2024/04/16 04:32:30;;;;;;;0.40;0.10;;;5.70;91.50;;;;;;5488221;26;20509;-57
2024/04/16 04:34:56;;;;;;;0.30;0.10;;;5.70;94.10;;;;;;5488061;26;20541;-57
2024/04/16 04:37:25;;;;;;;0.40;0.20;;;5.60;98.30;;;;;;5489096;26;20518;-53
2024/04/16 04:39:51;;;;;;;0.37;0.10;;;5.60;99.90;;;;;;5490965;26;20701;-57
2024/04/16 04:42:20;;;;;;;0.93;0.27;;;5.50;99.90;;;;;;5490305;26;20509;-57
2024/04/16 04:44:46;;;;;;;0.30;0.10;;;5.50;99.90;;;;;;5491154;26;20458;-57
2024/04/16 04:47:15;;;;;;;0.50;0.10;;;5.40;99.90;;;;;;5491492;26;20462;-57
2024/04/16 04:49:44;;;;;;;0.30;0.10;;;5.40;99.90;;;;;;5491195;26;20445;-58
2024/04/16 04:52:13;;;;;;;4.93;0.20;;;5.40;99.90;;;;;;5491859;26;20562;-56
2024/04/16 04:54:39;;;;;;;0.30;0.10;;;5.40;99.90;;;;;;5491575;26;20461;-58
2024/04/16 04:57:07;;;;;;;1.10;0.13;;;5.50;99.90;;;;;;5490967;26;20871;-58
2024/04/16 04:59:36;;;;;;;0.30;0.20;;;5.50;99.90;;;;;;5488822;26;20458;-58
2024/04/16 05:02:02;;;;;;;0.30;0.10;;;5.60;99.90;;;;;;5488029;26;20512;-58
2024/04/16 05:04:31;;;;;;;0.20;0.10;;;5.70;99.90;;;;;;5504568;25;20445;-56
2024/04/16 05:07:00;;;;;;;0.30;0.10;;;5.80;99.90;;;;;;5520563;26;20441;-57
2024/04/16 05:09:28;;;;;;;0.43;0.10;;;5.90;99.90;;;;;;5518785;26;20457;-58
2024/04/16 05:11:54;;;;;;;0.60;0.20;;;5.90;99.90;;;;;;5521648;26;20469;-58
2024/04/16 05:14:25;;;;;;;0.50;0.20;;;5.90;99.90;;;;;;5521849;26;20452;-58
2024/04/16 05:16:51;;;;;;;0.37;0.10;;;6.00;99.90;;;;;;5492281;26;21028;-59
2024/04/16 05:19:19;;;;;;;0.30;0.20;;;5.90;99.90;;;;;;5521943;26;20798;-58
2024/04/16 05:21:46;;;;;;;0.20;0.10;;;5.90;99.90;;;;;;5521741;26;20765;-58
2024/04/16 05:24:17;;;;;;;0.50;0.20;;;6.00;99.90;;;;;;5521838;26;20460;-58
2024/04/16 05:26:44;;;;;;;0.83;0.20;;;5.90;94.40;;;;;;5523978;26;20599;-58
2024/04/16 05:29:12;;;;;;;1.53;0.30;;;5.90;99.90;;;;;;5521452;26;20512;-59
2024/04/16 05:31:38;;;;;;;0.50;0.20;;;6.20;99.90;;;;;;5499539;26;20462;-58
2024/04/16 05:34:07;;;;;;;3.60;0.20;;;6.10;43.70;;;;;;5487950;26;20511;-57
2024/04/16 05:36:33;;;;;;;0.30;0.10;;;6.20;66.40;;;;;;5511940;26;20528;-59
2024/04/16 05:39:02;;;;;;;0.40;0.20;;;6.20;99.90;;;;;;5458085;26;20535;-57
2024/04/16 05:41:30;;;;;;;0.30;0.10;;;6.20;31.10;;;;;;5484142;26;20502;-58
2024/04/16 05:43:59;;;;;;;0.40;0.10;;;6.20;36.40;;;;;;5484889;26;20530;-59
2024/04/16 05:46:25;;;;;;;0.93;0.17;;;6.20;99.90;;;;;;5462129;26;20463;-60
2024/04/16 05:48:54;;;;;;;0.30;0.20;;;6.20;31.90;;;;;;5476823;26;20450;-59
2024/04/16 05:51:20;;;;;;;0.50;0.13;;;6.20;44.00;;;;;;5516986;26;20524;-60
2024/04/16 05:53:48;;;;;;;0.80;0.27;;;6.30;51.80;;;;;;5470665;26;20475;-60
2024/04/16 05:56:14;;;;;;;0.30;0.10;;;6.50;99.90;;;;;;5458363;26;20515;-60
2024/04/16 05:58:46;;;;;;;1.90;0.27;;;6.50;99.90;;;;;;5515859;26;20446;-60
2024/04/16 06:01:12;;;;;;;1.27;0.20;;;6.90;22.40;;;;;;5486322;26;20484;-60
2024/04/16 06:03:41;;;;;;;0.80;0.20;;;7.00;99.90;;;;;;5475546;26;20883;-60
2024/04/16 06:06:07;;;;;;;0.30;0.10;;;7.20;99.90;;;;;;5452526;26;20518;-60
2024/04/16 06:08:36;;;;;;;1.00;0.20;;;7.70;99.90;;;;;;5497443;26;20579;-61
2024/04/16 06:11:02;;;;;;;0.77;0.27;;;8.10;99.90;;;;;;5522930;26;20461;-60
2024/04/16 06:13:30;;;;;;;0.50;0.30;;;7.90;99.90;;;;;;5526459;26;20448;-60
2024/04/16 06:15:59;;;;;;;0.30;0.10;;;7.60;99.90;;;;;;5524428;26;20871;-61
2024/04/16 06:18:28;;;;;;;1.00;0.20;;;7.70;99.90;;;;;;5522705;26;20786;-60
2024/04/16 06:20:54;;;;;;;0.47;0.20;;;7.70;99.90;;;;;;5519944;26;20468;-60
2024/04/16 06:23:23;;;;;;;0.40;0.20;;;7.70;99.90;;;;;;5520946;26;20504;-59
2024/04/16 06:25:49;;;;;;;0.40;0.20;;;7.60;99.90;;;;;;5525089;26;20740;-59
2024/04/16 06:28:18;;;;;;;8.83;0.30;;;7.60;99.90;;;;;;5523457;26;20883;-60
2024/04/16 06:30:44;;;;;;;0.30;0.10;;;7.70;99.90;;;;;;5522733;26;20515;-61
2024/04/16 06:33:15;;;;;;;1.03;0.20;;;7.80;99.90;;;;;;5515152;26;20480;-62
2024/04/16 06:35:42;;;;;;;1.90;0.20;;;8.10;99.90;;;;;;5518465;26;20503;-61
2024/04/16 06:38:10;;;;;;;0.50;0.27;;;8.20;99.90;;;;;;5518632;26;20546;-61
2024/04/16 06:40:36;;;;;;;0.60;0.20;;;8.50;99.90;;;;;;5516757;26;20495;-60
2024/04/16 06:43:05;;;;;;;0.40;0.10;;;8.60;99.90;;;;;;5517022;26;20444;-61
2024/04/16 06:45:31;;;;;;;0.70;0.20;;;8.70;99.90;;;;;;5520994;26;20935;-61
2024/04/16 06:48:00;;;;;;;0.30;0.10;;;8.40;99.90;;;;;;5521628;26;20461;-61
2024/04/16 06:50:29;;;;;;;1.47;0.20;;;8.50;99.90;;;;;;5521772;26;20468;-60
2024/04/16 06:52:58;;;;;;;0.90;0.17;;;8.20;99.90;;;;;;5522826;26;20465;-60
2024/04/16 06:55:24;;;;;;;0.40;0.10;;;8.20;99.90;;;;;;5521495;26;20499;-58
2024/04/16 06:57:52;;;;;;;0.30;0.20;;;8.20;99.90;;;;;;5523919;26;20452;-60
2024/04/16 07:00:18;;;;;;;0.47;0.10;;;9.10;99.90;;;;;;5518548;26;20457;-61
2024/04/16 07:02:47;;;;;;;0.37;0.10;;;9.30;99.90;;;;;;5499658;26;20476;-60
2024/04/16 07:05:13;;;;;;;1.47;0.20;;;9.00;99.90;;;;;;5504385;26;20572;-61
2024/04/16 07:07:45;;;;;;;0.20;0.10;;;9.20;99.90;;;;;;5479433;26;20460;-61
2024/04/16 07:10:11;;;;;;;0.30;0.10;;;9.20;99.90;;;;;;5522891;26;20521;-61
2024/04/16 07:12:40;;;;;;;0.40;0.10;;;9.40;99.90;;;;;;5519828;26;20476;-61
2024/04/16 07:15:06;;;;;;;3.13;0.20;;;9.40;99.90;;;;;;5522052;26;20480;-60
2024/04/16 07:17:35;;;;;;;0.30;0.10;;;9.60;99.90;;;;;;5520595;26;20472;-61
2024/04/16 07:20:01;;;;;;;0.30;0.10;;;9.80;99.90;;;;;;5523945;26;20504;-62
2024/04/16 07:22:30;;;;;;;0.33;0.20;;;9.60;99.90;;;;;;5519886;26;20493;-61
2024/04/16 07:24:58;;;;;;;0.60;0.20;;;9.60;99.90;;;;;;5520910;26;20452;-61
2024/04/16 07:27:27;;;;;;;0.73;0.10;;;9.50;99.90;;;;;;5520866;26;20559;-61
2024/04/16 07:29:53;;;;;;;2.00;0.20;;;9.40;99.90;;;;;;5520441;26;20898;-59
2024/04/16 07:32:22;;;;;;;1.00;0.20;;;9.60;99.90;;;;;;5522098;26;20531;-59
2024/04/16 07:34:48;;;;;;;0.47;0.10;;;9.40;99.90;;;;;;5532770;26;20452;-56
2024/04/16 07:37:17;;;;;;;2.07;0.20;;;9.00;99.90;;;;;;5530384;26;20448;-59
2024/04/16 07:39:46;;;;;;;1.60;0.20;;;8.90;99.90;;;;;;5512770;26;20883;-57
2024/04/16 07:42:17;;;;;;;0.30;0.20;;;9.20;99.90;;;;;;5525256;26;20527;-56
2024/04/16 07:44:43;;;;;;;0.30;0.10;;;9.50;99.90;;;;;;5532676;26;20917;-54
2024/04/16 07:47:12;;;;;;;4.83;0.20;;;9.10;99.90;;;;;;5530379;26;20555;-58
2024/04/16 07:49:38;;;;;;;0.50;0.10;;;9.40;99.90;;;;;;5530291;26;20486;-57
2024/04/16 07:52:07;;;;;;;1.10;0.20;;;9.50;99.90;;;;;;5530049;26;20448;-57
2024/04/16 07:54:33;;;;;;;0.77;0.20;;;9.40;99.90;;;;;;5530567;26;20460;-55
2024/04/16 07:57:02;;;;;;;0.30;0.10;;;9.60;99.90;;;;;;5530613;26;20475;-56
2024/04/16 07:59:31;;;;;;;1.60;0.10;;;9.40;99.90;;;;;;5530141;26;20472;-56
2024/04/16 08:01:59;;;;;;;0.30;0.10;;;9.50;99.90;;;;;;5522549;26;20466;-58
2024/04/16 08:04:28;;;;;;;1.13;0.13;;;9.50;99.90;;;;;;5531539;26;20452;-59
2024/04/16 08:06:54;;;;;;;0.30;0.10;;;9.50;99.90;;;;;;5531949;26;20452;-57
2024/04/16 08:09:23;;;;;;;1.60;0.10;;;9.60;99.90;;;;;;5529525;26;20527;-58
2024/04/16 08:11:49;;;;;;;0.30;0.10;;;9.70;99.90;;;;;;5527986;26;20536;-57
2024/04/16 08:14:20;;;;;;;1.17;0.10;;;9.50;99.90;;;;;;5505547;26;20474;-56
2024/04/16 08:16:49;;;;;;;0.40;0.10;;;9.70;99.90;;;;;;5507681;26;20718;-56
2024/04/16 08:19:18;;;;;;;0.30;0.10;;;10.00;99.90;;;;;;5531048;26;20956;-54
2024/04/16 08:21:44;;;;;;;0.50;0.10;;;10.00;99.90;;;;;;5532244;26;20515;-55
2024/04/16 08:24:13;;;;;;;0.30;0.13;;;10.10;99.90;;;;;;5530777;26;20759;-55
2024/04/16 08:26:39;;;;;;;1.13;0.10;;;10.00;99.90;;;;;;5531680;26;20498;-54
2024/04/16 08:29:07;;;;;;;0.30;0.10;;;10.40;99.90;;;;;;5493484;26;20767;-56
2024/04/16 08:31:34;;;;;;;0.30;0.13;;;10.40;1.00;;;;;;5493549;26;20449;-56
2024/04/16 08:34:05;;;;;;;1.23;0.30;;;10.40;1.00;;;;;;5517790;26;20448;-55
2024/04/16 08:36:31;;;;;;;0.40;0.10;;;10.50;1.00;;;;;;5529778;26;20506;-55
2024/04/16 08:39:00;;;;;;;0.40;0.20;;;10.50;1.00;;;;;;5495297;26;20498;-54
2024/04/16 08:41:27;;;;;;;0.30;0.10;;;10.70;1.00;;;;;;5494857;26;20458;-52
2024/04/16 08:43:56;;;;;;;0.30;0.10;;;10.70;1.00;;;;;;5491380;26;20545;-56
2024/04/16 08:46:23;;;;;;;0.37;0.20;;;10.80;1.00;;;;;;5490602;26;20498;-58
2024/04/16 08:48:52;;;;;;;0.40;0.10;;;11.00;1.00;;;;;;5489124;26;20757;-57
2024/04/16 08:51:21;;;;;;;0.50;0.10;;;10.90;1.00;;;;;;5490757;26;20500;-58
2024/04/16 08:53:51;;;;;;;0.30;0.10;;;10.90;1.00;;;;;;5480813;26;20850;-56
2024/04/16 08:56:18;;;;;;;0.30;0.10;;;10.90;1.00;;;;;;5450651;26;20982;-57
2024/04/16 08:58:46;;;;;;;0.73;0.10;;;10.90;1.00;;;;;;5452661;26;20500;-59
2024/04/16 09:01:15;;;;;;;0.33;0.10;;;11.00;1.00;;;;;;5453696;26;20459;-58
2024/04/16 09:03:49;;;;;;;2.23;0.10;;;11.10;1.00;;;;;;5452489;26;20521;-58
2024/04/16 09:06:17;;;;;;;0.40;0.10;;;11.10;1.00;;;;;;5453050;26;20458;-55
2024/04/16 09:08:49;;;;;;;1.90;0.30;;;11.00;1.00;;;;;;5455349;26;20467;-58
2024/04/16 09:11:15;;;;;;;1.23;0.20;;;11.00;1.00;;;;;;5457986;26;20683;-59
2024/04/16 09:13:45;;;;;;;0.43;0.10;;;11.10;1.00;;;;;;5525221;26;20445;-59
2024/04/16 09:16:11;;;;;;;0.33;0.10;;;11.40;1.00;;;;;;5524492;26;20582;-59
2024/04/16 09:18:40;;;;;;;2.40;0.20;;;11.50;1.00;;;;;;5523499;26;21219;-60
2024/04/16 09:21:06;;;;;;;0.30;0.10;;;11.20;1.00;;;;;;5526228;26;20562;-57
2024/04/16 09:23:35;;;;;;;0.40;0.20;;;11.40;1.00;;;;;;5527140;26;20898;-56
2024/04/16 09:26:12;;;;;;;0.30;0.10;;;11.20;1.00;;;;;;5525335;26;20452;-58
2024/04/16 09:28:48;;;;;;;0.30;0.10;;;11.30;1.00;;;;;;5524835;26;20436;-58
2024/04/16 09:31:16;;;;;;;0.60;0.17;;;11.40;1.00;;;;;;5522805;26;20501;-57
2024/04/16 09:33:45;;;;;;;0.97;0.10;;;11.20;1.00;;;;;;5487399;26;20525;-55
2024/04/16 09:36:12;;;;;;;0.30;0.13;;;10.80;1.00;;;;;;5489667;26;20453;-56
2024/04/16 09:38:43;;;;;;;0.30;0.10;;;11.00;1.00;;;;;;5487328;26;20818;-56
2024/04/16 09:41:14;;;;;;;0.40;0.10;;;10.80;1.00;;;;;;5488845;26;20461;-57
2024/04/16 09:43:43;;;;;;;1.37;0.10;;;10.80;1.00;;;;;;5490722;26;20454;-56
2024/04/16 09:46:11;;;;;;;1.00;0.10;;;10.90;1.00;;;;;;5490390;26;20438;-58
2024/04/16 09:48:41;;;;;;;1.97;0.13;;;10.80;1.00;;;;;;5486003;26;20510;-60
2024/04/16 09:51:08;;;;;;;2.97;0.20;;;10.80;1.00;;;;;;5490634;26;20454;-59
2024/04/16 09:53:39;;;;;;;2.00;0.10;;;11.00;1.00;;;;;;5489595;26;20446;-59
2024/04/16 09:56:05;;;;;;;0.80;0.10;;;11.00;1.00;;;;;;5486415;26;20943;-59
2024/04/16 09:58:38;;;;;;;0.30;0.13;;;11.00;1.00;;;;;;5491365;26;20494;-60
2024/04/16 10:01:05;;;;;;;0.30;0.10;;;11.00;1.00;;;;;;5489591;26;20447;-59
2024/04/16 10:03:34;;;;;;;1.07;0.20;;;11.50;1.00;;;;;;5521688;26;20468;-60
2024/04/16 10:06:00;;;;;;;0.30;0.10;;;11.70;1.00;;;;;;5511936;26;20678;-61
2024/04/16 10:08:29;;;;;;;4.87;0.20;;;11.10;1.00;;;;;;5446357;26;20467;-60
2024/04/16 10:10:59;;;;;;;0.50;0.20;;;11.50;1.00;;;;;;5447341;26;20511;-61
2024/04/16 10:13:29;;;;;;;1.55;0.20;;;11.50;1.00;;;;;;5445252;26;20575;-60
2024/04/16 10:15:58;;;;;;;0.63;0.10;;;11.70;1.00;;;;;;5444262;26;20295;-59
2024/04/16 10:18:28;;;;;;;0.40;0.20;;;12.00;1.00;;;;;;5500160;26;20469;-58
2024/04/16 10:20:57;;;;;;;1.07;0.20;;;11.90;1.00;;;;;;5505323;26;20650;-58
2024/04/16 10:23:26;;;;;;;0.40;0.10;;;12.00;1.00;;;;;;5500201;26;20484;-57
2024/04/16 10:25:53;;;;;;;0.30;0.10;;;11.90;1.00;;;;;;5520556;26;20452;-58
2024/04/16 10:28:26;;;;;;;0.47;0.10;;;11.90;1.00;;;;;;5514544;26;20844;-59
2024/04/16 10:31:01;;;;;;;0.68;0.17;;;11.60;1.00;;;;;;5517771;26;20454;-58
2024/04/16 10:33:34;;;;;;;0.53;0.20;;;11.30;1.00;;;;;;5448115;26;20221;-60
2024/04/16 10:36:03;;;;;;;0.30;0.10;;;11.30;1.00;;;;;;5473588;26;20940;-59
2024/04/16 10:38:35;;;;;;;0.30;0.10;;;11.30;1.00;;;;;;5511732;26;20900;-59
2024/04/16 10:41:02;;;;;;;0.30;0.10;;;11.50;1.00;;;;;;5519230;26;20484;-59
2024/04/16 10:43:31;;;;;;;0.20;0.10;;;11.60;1.00;;;;;;5517597;26;20457;-55
2024/04/16 10:45:57;;;;;;;2.67;0.20;;;11.10;1.00;;;;;;5504780;26;20927;-55
2024/04/16 10:48:28;;;;;;;0.30;0.10;;;11.30;1.00;;;;;;5487672;26;20530;-57
2024/04/16 10:50:54;;;;;;;0.30;0.10;;;11.40;1.00;;;;;;5488103;26;20520;-55
2024/04/16 10:53:23;;;;;;;8.33;0.20;;;11.70;1.00;;;;;;5514173;26;20469;-56
2024/04/16 10:55:50;;;;;;;0.30;0.10;;;12.30;1.00;;;;;;5494778;26;20458;-53
2024/04/16 10:58:20;;;;;;;0.30;0.10;;;12.10;1.00;;;;;;5484526;26;20502;-54
2024/04/16 11:00:52;;;;;;;0.30;0.10;;;12.30;1.00;;;;;;5486472;26;20518;-57
2024/04/16 11:03:21;;;;;;;0.30;0.10;;;12.30;1.00;;;;;;5488176;26;20481;-56
2024/04/16 11:05:50;;;;;;;0.30;0.10;;;12.40;1.00;;;;;;5488456;26;20923;-56
2024/04/16 11:08:19;;;;;;;0.30;0.10;;;12.40;1.00;;;;;;5486172;26;20886;-56
2024/04/16 11:10:49;;;;;;;0.40;0.10;;;12.30;1.00;;;;;;5485732;26;20981;-55
2024/04/16 11:13:18;;;;;;;0.40;0.17;;;12.40;1.00;;;;;;5483355;26;20541;-56
2024/04/16 11:15:45;;;;;;;0.40;0.10;;;12.50;1.00;;;;;;5483449;26;20454;-56
2024/04/16 11:18:14;;;;;;;0.20;0.10;;;12.50;1.00;;;;;;5473900;26;20578;-55
2024/04/16 11:20:40;;;;;;;0.30;0.10;;;12.40;1.00;;;;;;5487049;26;20918;-55
2024/04/16 11:23:12;;;;;;;0.50;0.10;;;12.40;1.00;;;;;;5501920;26;20614;-55
2024/04/16 11:25:44;;;;;;;1.13;0.10;;;12.20;1.00;;;;;;5502905;26;20446;-55
2024/04/16 11:28:12;;;;;;;0.30;0.10;;;11.80;1.00;;;;;;5485202;26;20943;-55
2024/04/16 11:30:52;;;;;;;3.83;0.20;;;11.90;1.00;;;;;;5450073;26;20471;-58
2024/04/16 11:33:21;;;;;;;0.30;0.10;;;12.20;1.00;;;;;;5448671;26;20507;-57
2024/04/16 11:35:47;;;;;;;0.40;0.20;;;12.40;1.00;;;;;;5453035;26;20463;-58
2024/04/16 11:38:21;;;;;;;0.80;0.10;;;12.20;1.00;;;;;;5452042;26;20458;-58
2024/04/16 11:40:47;;;;;;;0.97;0.10;;;12.20;1.00;;;;;;5451848;26;20709;-53
2024/04/16 11:43:16;;;;;;;0.30;0.10;;;12.70;1.00;;;;;;5450964;26;20451;-53
2024/04/16 11:45:43;;;;;;;0.40;0.10;;;12.80;1.00;;;;;;5487037;26;20458;-54
2024/04/16 11:48:14;;;;;;;0.30;0.10;;;13.30;1.00;;;;;;5484322;26;20726;-55
2024/04/16 11:50:40;;;;;;;0.30;0.10;;;13.30;1.00;;;;;;5484678;26;20960;-57
2024/04/16 11:53:09;;;;;;;1.17;0.20;;;13.40;1.00;;;;;;5482438;26;20462;-55
2024/04/16 11:55:37;;;;;;;0.30;0.10;;;13.40;1.00;;;;;;5485300;26;20496;-52
2024/04/16 11:58:06;;;;;;;0.30;0.10;;;13.10;1.00;;;;;;5485742;26;20527;-55
2024/04/16 12:00:32;;;;;;;0.30;0.10;;;12.70;1.00;;;;;;5486962;26;20723;-55
2024/04/16 12:03:03;;;;;;;0.40;0.10;;;12.20;1.00;;;;;;5486338;26;20469;-56
2024/04/16 12:05:29;;;;;;;0.93;0.10;;;12.20;1.00;;;;;;5484981;26;20812;-56
2024/04/16 12:07:59;;;;;;;1.70;0.10;;;12.00;1.00;;;;;;5485085;26;20462;-57
2024/04/16 12:10:26;;;;;;;0.30;0.10;;;12.30;1.00;;;;;;5488103;26;20923;-56
2024/04/16 12:12:57;;;;;;;0.20;0.10;;;12.80;1.00;;;;;;5486463;26;20578;-55
2024/04/16 12:15:23;;;;;;;0.50;0.10;;;13.00;1.00;;;;;;5484925;26;20506;-55
2024/04/16 12:17:52;;;;;;;1.23;0.13;;;12.80;1.00;;;;;;5484106;26;20541;-56
2024/04/16 12:20:18;;;;;;;0.93;0.13;;;12.70;1.00;;;;;;5466461;26;21027;-54
2024/04/16 12:22:47;;;;;;;0.30;0.10;;;12.50;1.00;;;;;;5454401;26;20451;-53
2024/04/16 12:25:13;;;;;;;0.40;0.20;;;12.20;1.00;;;;;;5452859;26;20735;-54
2024/04/16 12:27:42;;;;;;;0.30;0.10;;;12.10;1.00;;;;;;5474356;26;20481;-55
2024/04/16 12:30:11;;;;;;;0.67;0.17;;;12.20;1.00;;;;;;5454112;26;20557;-61
2024/04/16 12:32:40;;;;;;;0.30;0.10;;;12.30;1.00;;;;;;5452793;26;20990;-55
2024/04/16 12:35:06;;;;;;;0.40;0.17;;;12.10;1.00;;;;;;5471224;26;20519;-59
2024/04/16 12:37:35;;;;;;;0.30;0.10;;;12.30;1.00;;;;;;5452846;26;20446;-55
2024/04/16 12:40:01;;;;;;;1.00;0.10;;;12.70;1.00;;;;;;5475550;26;21076;-58
2024/04/16 12:42:30;;;;;;;0.30;0.10;;;12.90;1.00;;;;;;5469433;26;20858;-58
2024/04/16 12:44:56;;;;;;;0.70;0.10;;;13.30;1.00;;;;;;5490657;26;20764;-55
2024/04/16 12:47:28;;;;;;;0.30;0.10;;;13.60;1.00;;;;;;5458352;26;20467;-57
2024/04/16 12:49:55;;;;;;;0.40;0.10;;;13.90;1.00;;;;;;5458204;26;20540;-55
2024/04/16 12:52:24;;;;;;;0.30;0.10;;;14.00;1.00;;;;;;5454394;26;20704;-56
2024/04/16 12:54:50;;;;;;;0.30;0.10;;;13.90;1.00;;;;;;5455541;26;20492;-56
2024/04/16 12:57:20;;;;;;;0.30;0.10;;;13.60;1.00;;;;;;5452332;26;21166;-56
2024/04/16 12:59:46;;;;;;;0.30;0.10;;;13.50;1.00;;;;;;5455121;26;20510;-58
2024/04/16 13:02:15;;;;;;;0.80;0.10;;;13.80;1.00;;;;;;5465874;26;20518;-57
2024/04/16 13:04:44;;;;;;;0.40;0.10;;;14.20;1.00;;;;;;5443486;26;20841;-56
2024/04/16 13:07:12;;;;;;;0.30;0.10;;;14.40;1.00;;;;;;5452041;26;20451;-56